createdAt,value
2023-05-16T00:00:07.417Z,13.70
2023-05-16T00:05:14.438Z,17.15
2023-05-16T00:10:16.168Z,19.38
2023-05-16T00:15:18.363Z,14.70
2023-05-16T00:20:23.573Z,19.17
2023-05-16T00:25:28.701Z,15.15
2023-05-16T00:30:30.509Z,21.52
2023-05-16T00:35:34.774Z,20.50
2023-05-16T00:40:36.742Z,15.88
2023-05-16T00:45:38.732Z,23.25
2023-05-16T00:50:40.798Z,27.92
2023-05-16T00:55:44.798Z,21.08
2023-05-16T01:00:48.767Z,20.63
2023-05-16T01:05:57.539Z,21.83
2023-05-16T01:11:30.782Z,22.35
2023-05-16T01:17:03.805Z,22.63
2023-05-16T01:22:16.464Z,22.58
2023-05-16T01:27:18.652Z,22.57
2023-05-16T01:32:21.239Z,24.70
2023-05-16T01:37:36.025Z,21.00
2023-05-16T01:42:44.334Z,26.57
2023-05-16T01:47:49.256Z,22.23
2023-05-16T01:52:57.916Z,16.67
2023-05-16T01:58:04.835Z,19.60
2023-05-16T02:03:08.293Z,24.30
2023-05-16T02:08:10.106Z,19.00
2023-05-16T02:13:11.751Z,18.60
2023-05-16T02:18:13.511Z,21.43
2023-05-16T02:23:17.985Z,20.23
2023-05-16T02:28:21.925Z,21.23
2023-05-16T02:33:27.709Z,22.00
2023-05-16T02:38:29.555Z,20.07
2023-05-16T02:43:31.277Z,22.50
2023-05-16T02:48:32.903Z,27.70
2023-05-16T02:53:36.995Z,21.13
2023-05-16T02:58:38.835Z,20.10
2023-05-16T03:03:41.217Z,23.17
2023-05-16T03:08:43.348Z,21.50
2023-05-16T03:13:45.020Z,14.10
2023-05-16T03:18:49.286Z,14.93
2023-05-16T03:23:50.997Z,22.60
2023-05-16T03:28:52.728Z,22.70
2023-05-16T03:33:56.710Z,21.73
2023-05-16T03:39:01.737Z,22.35
2023-05-16T03:44:06.028Z,18.13
2023-05-16T03:49:07.732Z,16.97
2023-05-16T03:54:09.461Z,18.87
2023-05-16T03:59:15.937Z,19.83
2023-05-16T04:04:19.923Z,21.60
2023-05-16T04:09:23.767Z,20.03
2023-05-16T04:14:25.497Z,25.23
2023-05-16T04:19:27.218Z,18.00
2023-05-16T04:24:31.154Z,16.77
2023-05-16T04:29:35.900Z,20.53
2023-05-16T04:34:40.599Z,17.90
2023-05-16T04:39:42.849Z,16.93
2023-05-16T04:44:44.811Z,15.63
2023-05-16T04:49:49.049Z,19.03
2023-05-16T04:54:53.658Z,14.90
2023-05-16T04:59:55.772Z,14.33
2023-05-16T05:04:59.706Z,17.17
2023-05-16T05:10:03.626Z,11.33
2023-05-16T05:15:06.510Z,19.70
2023-05-16T05:20:11.597Z,14.98
2023-05-16T05:25:18.496Z,18.20
2023-05-16T05:30:20.225Z,13.00
2023-05-16T05:35:23.960Z,15.47
2023-05-16T05:40:25.723Z,16.98
2023-05-16T05:45:31.912Z,21.52
2023-05-16T05:50:34.160Z,16.25
2023-05-16T05:55:41.781Z,14.75
2023-05-16T06:00:43.506Z,17.17
2023-05-16T06:05:45.211Z,12.65
2023-05-16T06:10:47.581Z,16.63
2023-05-16T06:15:54.741Z,11.75
2023-05-16T06:20:59.422Z,15.52
2023-05-16T06:26:06.610Z,10.80
2023-05-16T06:31:08.395Z,9.17
2023-05-16T06:36:12.665Z,14.97
2023-05-16T06:41:16.426Z,11.93
2023-05-16T06:46:23.098Z,15.45
2023-05-16T06:51:24.914Z,7.25
2023-05-16T06:56:28.932Z,12.63
2023-05-16T07:01:33.934Z,10.90
2023-05-16T07:06:40.245Z,12.52
2023-05-16T07:11:44.487Z,15.60
2023-05-16T07:16:46.292Z,13.20
2023-05-16T07:21:48.032Z,11.52
2023-05-16T07:26:50.014Z,11.38
2023-05-16T07:31:54.222Z,15.90
2023-05-16T07:36:59.042Z,13.88
2023-05-16T07:42:00.797Z,11.13
2023-05-16T07:47:07.463Z,13.98
2023-05-16T07:52:09.322Z,14.50
2023-05-16T07:57:13.371Z,15.48
2023-05-16T08:02:17.732Z,11.50
2023-05-16T08:07:19.550Z,10.68
2023-05-16T08:12:21.349Z,13.60
2023-05-16T08:17:23.141Z,18.35
2023-05-16T08:22:30.161Z,11.77
2023-05-16T08:27:34.383Z,9.77
2023-05-16T08:32:41.914Z,9.68
2023-05-16T08:37:46.040Z,5.65
2023-05-16T08:42:55.193Z,5.13
2023-05-16T08:48:01.074Z,13.10
2023-05-16T08:53:11.488Z,8.77
2023-05-16T08:58:15.746Z,10.02
2023-05-16T09:03:25.220Z,9.73
2023-05-16T09:08:27.428Z,10.75
2023-05-16T09:13:29.231Z,15.30
2023-05-16T09:18:33.769Z,13.77
2023-05-16T09:23:37.779Z,17.83
2023-05-16T09:28:39.936Z,11.20
2023-05-16T09:33:42.476Z,3.30
2023-05-16T09:38:46.361Z,6.95
2023-05-16T09:43:50.506Z,5.80
2023-05-16T09:48:52.309Z,5.38
2023-05-16T09:53:55.695Z,8.65
2023-05-16T09:59:03.317Z,10.32
2023-05-16T10:04:14.170Z,9.00
2023-05-16T10:09:18.683Z,5.40
2023-05-16T10:14:20.883Z,5.45
2023-05-16T10:19:25.957Z,11.07
2023-05-16T10:24:37.083Z,6.78
2023-05-16T10:29:54.173Z,7.57
2023-05-16T10:34:57.175Z,6.07
2023-05-16T10:40:02.693Z,8.48
2023-05-16T10:45:20.089Z,13.40
2023-05-16T10:50:42.981Z,13.30
2023-05-16T10:55:59.653Z,13.30
2023-05-16T11:01:23.879Z,15.40
2023-05-16T11:06:43.385Z,19.38
2023-05-16T11:12:05.320Z,12.32
2023-05-16T11:17:21.696Z,16.08
2023-05-16T11:22:30.066Z,12.68
2023-05-16T11:27:39.583Z,13.88
2023-05-16T11:32:45.758Z,12.55
2023-05-16T11:37:48.064Z,13.80
2023-05-16T11:42:50.042Z,11.27
2023-05-16T11:47:54.308Z,15.57
2023-05-16T11:52:57.603Z,15.13
2023-05-16T11:58:02.736Z,14.05
2023-05-16T12:03:08.246Z,8.95
2023-05-16T12:08:12.704Z,11.77
2023-05-16T12:13:18.269Z,7.82
2023-05-16T12:18:22.458Z,16.00
2023-05-16T12:23:26.967Z,11.27
2023-05-16T12:28:37.417Z,14.52
2023-05-16T12:33:42.070Z,11.65
2023-05-16T12:38:46.999Z,12.10
2023-05-16T12:43:49.675Z,9.57
2023-05-16T12:49:02.900Z,17.20
2023-05-16T12:54:12.097Z,15.55
2023-05-16T12:59:14.567Z,16.73
2023-05-16T13:04:20.342Z,15.52
2023-05-16T13:09:29.970Z,11.48
2023-05-16T13:14:34.101Z,10.77
2023-05-16T13:19:36.617Z,11.63
2023-05-16T13:24:42.874Z,12.38
2023-05-16T13:29:44.964Z,8.77
2023-05-16T13:34:48.902Z,8.85
2023-05-16T13:39:56.072Z,9.93
2023-05-16T13:44:57.893Z,10.95
2023-05-16T13:50:03.417Z,13.70
2023-05-16T13:55:05.697Z,10.25
2023-05-16T14:05:17.614Z,6.38
2023-05-16T14:10:23.853Z,6.70
2023-05-16T14:15:25.790Z,9.02
2023-05-16T14:20:31.173Z,8.45
2023-05-16T14:25:35.382Z,17.48
2023-05-16T14:30:39.492Z,12.02
2023-05-16T14:35:41.261Z,8.70
2023-05-16T14:40:43.018Z,12.88
2023-05-16T14:45:47.056Z,14.60
2023-05-16T14:50:49.109Z,10.82
2023-05-16T14:55:50.921Z,12.20
2023-05-16T15:00:52.741Z,11.13
2023-05-16T15:05:54.954Z,10.90
2023-05-16T15:11:00.075Z,14.93
2023-05-16T15:16:04.502Z,15.80
2023-05-16T15:21:09.299Z,17.30
2023-05-16T15:26:11.709Z,12.02
2023-05-16T15:31:13.606Z,12.38
2023-05-16T15:36:15.585Z,17.50
2023-05-16T15:41:37.269Z,14.65
2023-05-16T15:46:41.766Z,13.45
2023-05-16T15:51:43.564Z,14.15
2023-05-16T15:56:45.529Z,12.85
2023-05-16T16:01:52.261Z,12.13
2023-05-16T16:06:54.348Z,14.15
2023-05-16T16:11:56.743Z,14.65
2023-05-16T16:16:59.096Z,17.52
2023-05-16T16:22:00.904Z,9.88
2023-05-16T16:27:07.242Z,12.85
2023-05-16T16:32:11.270Z,16.42
2023-05-16T16:37:13.028Z,10.82
2023-05-16T16:42:17.260Z,12.63
2023-05-16T16:47:19.558Z,12.50
2023-05-16T16:52:21.336Z,17.00
2023-05-16T16:57:25.560Z,10.75
2023-05-16T17:02:32.631Z,15.55
2023-05-16T17:07:36.776Z,8.57
2023-05-16T17:12:46.945Z,15.25
2023-05-16T17:17:49.482Z,15.23
2023-05-16T17:22:53.643Z,16.60
2023-05-16T17:28:00.769Z,16.38
2023-05-16T17:33:02.588Z,12.95
2023-05-16T17:38:06.613Z,20.27
2023-05-16T17:43:10.873Z,12.52
2023-05-16T17:48:17.501Z,15.00
2023-05-16T17:53:22.329Z,17.20
2023-05-16T17:58:29.324Z,16.35
2023-05-16T18:03:33.599Z,19.58
2023-05-16T18:08:35.507Z,15.23
2023-05-16T18:13:42.415Z,16.20
2023-05-16T18:18:44.570Z,20.30
2023-05-16T18:23:47.086Z,13.73
2023-05-16T18:28:55.944Z,14.02
2023-05-16T18:34:03.673Z,20.02
2023-05-16T18:39:05.737Z,15.00
2023-05-16T18:44:09.816Z,14.88
2023-05-16T18:49:14.078Z,17.73
2023-05-16T18:54:15.862Z,13.55
2023-05-16T18:59:18.778Z,20.30
2023-05-16T19:04:20.676Z,20.67
2023-05-16T19:09:27.110Z,21.08
2023-05-16T19:14:33.875Z,19.70
2023-05-16T19:19:37.981Z,21.38
2023-05-16T19:24:40.138Z,16.25
2023-05-16T19:29:41.999Z,15.73
2023-05-16T19:34:44.001Z,20.65
2023-05-16T19:39:45.922Z,26.08
2023-05-16T19:44:49.756Z,20.42
2023-05-16T19:49:54.544Z,28.05
2023-05-16T19:54:56.474Z,20.55
2023-05-16T20:00:00.659Z,24.15
2023-05-16T20:05:08.181Z,23.67
2023-05-16T20:10:10.450Z,24.85
2023-05-16T20:15:12.807Z,29.80
2023-05-16T20:20:14.868Z,26.95
2023-05-16T20:25:16.612Z,31.08
2023-05-16T20:30:18.780Z,25.20
2023-05-16T20:35:20.723Z,26.50
2023-05-16T20:40:23.120Z,24.48
2023-05-16T20:45:27.226Z,34.63
2023-05-16T20:50:29.588Z,25.20
2023-05-16T20:55:33.151Z,27.38
2023-05-16T21:00:40.234Z,27.27
2023-05-16T21:05:44.232Z,24.45
2023-05-16T21:10:45.944Z,32.70
2023-05-16T21:15:49.337Z,25.38
2023-05-16T21:20:51.213Z,30.40
2023-05-16T21:25:52.919Z,27.15
2023-05-16T21:30:59.131Z,25.88
2023-05-16T21:36:03.892Z,24.65
2023-05-16T21:41:08.592Z,33.60
2023-05-16T21:46:12.533Z,25.58
2023-05-16T21:51:16.579Z,24.40
2023-05-16T21:56:18.798Z,23.42
2023-05-16T22:01:22.121Z,22.52
2023-05-16T22:06:24.709Z,28.63
2023-05-16T22:11:26.516Z,27.35
2023-05-16T22:16:30.631Z,28.45
2023-05-16T22:21:37.915Z,25.48
2023-05-16T22:26:40.557Z,22.65
2023-05-16T22:31:44.741Z,21.98
2023-05-16T22:36:51.736Z,17.52
2023-05-16T22:41:57.878Z,23.60
2023-05-16T22:47:02.325Z,21.85
2023-05-16T22:52:06.439Z,29.20
2023-05-16T22:57:13.607Z,22.08
2023-05-16T23:02:15.302Z,34.50
2023-05-16T23:07:21.720Z,32.08
2023-05-16T23:12:25.240Z,18.20
2023-05-16T23:17:27.009Z,22.93
2023-05-16T23:22:28.754Z,21.90
2023-05-16T23:27:30.725Z,25.50
2023-05-16T23:32:32.437Z,23.33
2023-05-16T23:37:38.707Z,24.00
2023-05-16T23:42:42.805Z,25.03
2023-05-16T23:47:46.932Z,23.47
2023-05-16T23:52:48.692Z,26.60
2023-05-16T23:57:50.382Z,23.27
